sensor_id;sensor_type;location;lat;lon;timestamp;pressure;altitude;pressure_sealevel;temperature;humidity
60465;BME280;46314;52.392;9.758;2023-02-20T00:01:20;101566.03;;;8.09;73.38
60465;BME280;46314;52.392;9.758;2023-02-20T00:03:47;101570.31;;;8.60;71.17
60465;BME280;46314;52.392;9.758;2023-02-20T00:06:14;101567.66;;;8.38;71.12
60465;BME280;46314;52.392;9.758;2023-02-20T00:08:41;101568.66;;;7.94;72.82
60465;BME280;46314;52.392;9.758;2023-02-20T00:11:07;101564.41;;;8.13;72.47
60465;BME280;46314;52.392;9.758;2023-02-20T00:13:34;101549.91;;;8.33;71.06
60465;BME280;46314;52.392;9.758;2023-02-20T00:16:00;101552.78;;;7.84;72.91
60465;BME280;46314;52.392;9.758;2023-02-20T00:18:27;101546.53;;;8.26;72.05
60465;BME280;46314;52.392;9.758;2023-02-20T00:20:53;101547.34;;;8.22;71.72
60465;BME280;46314;52.392;9.758;2023-02-20T00:23:21;101541.84;;;7.94;72.06
60465;BME280;46314;52.392;9.758;2023-02-20T00:25:47;101525.78;;;8.19;71.32
60465;BME280;46314;52.392;9.758;2023-02-20T00:28:13;101527.97;;;7.57;73.32
60465;BME280;46314;52.392;9.758;2023-02-20T00:30:40;101526.84;;;8.18;71.91
60465;BME280;46314;52.392;9.758;2023-02-20T00:33:06;101540.94;;;8.48;70.48
60465;BME280;46314;52.392;9.758;2023-02-20T00:35:33;101528.91;;;8.32;71.82
60465;BME280;46314;52.392;9.758;2023-02-20T00:37:59;101520.88;;;7.93;73.41
60465;BME280;46314;52.392;9.758;2023-02-20T00:40:27;101523.19;;;7.52;73.94
60465;BME280;46314;52.392;9.758;2023-02-20T00:42:53;101519.88;;;7.77;73.42
60465;BME280;46314;52.392;9.758;2023-02-20T00:45:20;101525.94;;;7.74;73.63
60465;BME280;46314;52.392;9.758;2023-02-20T00:47:47;101514.19;;;7.89;72.90
60465;BME280;46314;52.392;9.758;2023-02-20T00:50:16;101507.38;;;7.70;74.01
60465;BME280;46314;52.392;9.758;2023-02-20T00:52:43;101509.75;;;8.21;72.06
60465;BME280;46314;52.392;9.758;2023-02-20T00:55:09;101499.88;;;7.65;73.98
60465;BME280;46314;52.392;9.758;2023-02-20T00:57:37;101507.00;;;7.61;74.41
60465;BME280;46314;52.392;9.758;2023-02-20T01:00:05;101508.53;;;7.74;74.39
60465;BME280;46314;52.392;9.758;2023-02-20T01:02:32;101509.81;;;7.66;74.19
60465;BME280;46314;52.392;9.758;2023-02-20T01:04:59;101494.94;;;8.00;73.32
60465;BME280;46314;52.392;9.758;2023-02-20T01:07:25;101489.09;;;7.96;73.48
60465;BME280;46314;52.392;9.758;2023-02-20T01:09:52;101484.41;;;7.96;73.67
60465;BME280;46314;52.392;9.758;2023-02-20T01:12:18;101491.69;;;8.08;73.45
60465;BME280;46314;52.392;9.758;2023-02-20T01:14:46;101492.38;;;7.93;72.42
60465;BME280;46314;52.392;9.758;2023-02-20T01:17:12;101492.94;;;7.90;73.18
60465;BME280;46314;52.392;9.758;2023-02-20T01:19:39;101489.75;;;8.08;72.44
60465;BME280;46314;52.392;9.758;2023-02-20T01:22:05;101487.56;;;8.10;72.21
60465;BME280;46314;52.392;9.758;2023-02-20T01:24:32;101479.72;;;8.34;71.34
60465;BME280;46314;52.392;9.758;2023-02-20T01:26:58;101479.16;;;8.32;70.69
60465;BME280;46314;52.392;9.758;2023-02-20T01:29:24;101467.69;;;8.51;69.94
60465;BME280;46314;52.392;9.758;2023-02-20T01:31:52;101452.78;;;8.14;70.26
60465;BME280;46314;52.392;9.758;2023-02-20T01:34:19;101440.84;;;7.71;71.02
60465;BME280;46314;52.392;9.758;2023-02-20T01:36:46;101440.34;;;7.20;74.57
60465;BME280;46314;52.392;9.758;2023-02-20T01:39:15;101438.03;;;8.04;71.29
60465;BME280;46314;52.392;9.758;2023-02-20T01:41:42;101429.78;;;8.09;71.23
60465;BME280;46314;52.392;9.758;2023-02-20T01:44:16;101426.13;;;7.98;71.42
60465;BME280;46314;52.392;9.758;2023-02-20T01:46:46;101432.59;;;7.76;71.34
60465;BME280;46314;52.392;9.758;2023-02-20T01:49:19;101440.63;;;8.15;70.89
60465;BME280;46314;52.392;9.758;2023-02-20T01:51:49;101426.03;;;7.50;72.42
60465;BME280;46314;52.392;9.758;2023-02-20T01:54:19;101430.56;;;7.67;72.95
60465;BME280;46314;52.392;9.758;2023-02-20T01:56:47;101418.69;;;7.99;72.06
60465;BME280;46314;52.392;9.758;2023-02-20T01:59:15;101419.41;;;7.84;72.54
60465;BME280;46314;52.392;9.758;2023-02-20T02:01:42;101416.13;;;7.87;72.13
60465;BME280;46314;52.392;9.758;2023-02-20T02:04:10;101409.44;;;7.77;72.56
60465;BME280;46314;52.392;9.758;2023-02-20T02:06:42;101398.53;;;7.33;73.54
60465;BME280;46314;52.392;9.758;2023-02-20T02:09:12;101388.66;;;7.37;73.60
60465;BME280;46314;52.392;9.758;2023-02-20T02:11:41;101389.34;;;7.55;73.70
60465;BME280;46314;52.392;9.758;2023-02-20T02:14:07;101386.59;;;7.92;72.11
60465;BME280;46314;52.392;9.758;2023-02-20T02:16:39;101375.66;;;7.70;73.61
60465;BME280;46314;52.392;9.758;2023-02-20T02:19:20;101381.34;;;7.91;72.14
60465;BME280;46314;52.392;9.758;2023-02-20T02:22:22;101372.91;;;7.70;73.07
60465;BME280;46314;52.392;9.758;2023-02-20T02:25:06;101372.66;;;7.77;72.33
60465;BME280;46314;52.392;9.758;2023-02-20T02:30:45;101364.00;;;7.63;73.21
60465;BME280;46314;52.392;9.758;2023-02-20T02:33:33;101352.72;;;7.32;75.38
60465;BME280;46314;52.392;9.758;2023-02-20T02:36:16;101337.94;;;7.81;73.11
60465;BME280;46314;52.392;9.758;2023-02-20T02:38:47;101341.16;;;7.35;73.98
60465;BME280;46314;52.392;9.758;2023-02-20T02:41:21;101333.81;;;7.46;73.71
60465;BME280;46314;52.392;9.758;2023-02-20T02:43:55;101325.13;;;7.70;73.23
60465;BME280;46314;52.392;9.758;2023-02-20T02:46:28;101327.06;;;7.32;74.56
60465;BME280;46314;52.392;9.758;2023-02-20T02:49:01;101316.59;;;7.34;73.99
60465;BME280;46314;52.392;9.758;2023-02-20T02:51:34;101322.16;;;7.76;73.57
60465;BME280;46314;52.392;9.758;2023-02-20T02:54:11;101318.03;;;7.84;72.48
60465;BME280;46314;52.392;9.758;2023-02-20T02:56:41;101307.44;;;7.66;73.64
60465;BME280;46314;52.392;9.758;2023-02-20T02:59:09;101311.91;;;7.77;73.93
60465;BME280;46314;52.392;9.758;2023-02-20T03:01:40;101311.13;;;7.39;73.41
60465;BME280;46314;52.392;9.758;2023-02-20T03:04:09;101303.34;;;7.73;73.27
60465;BME280;46314;52.392;9.758;2023-02-20T03:06:40;101301.69;;;7.72;72.83
60465;BME280;46314;52.392;9.758;2023-02-20T03:09:10;101298.41;;;7.81;73.60
60465;BME280;46314;52.392;9.758;2023-02-20T03:11:40;101298.78;;;7.52;74.42
60465;BME280;46314;52.392;9.758;2023-02-20T03:14:10;101300.69;;;7.46;74.56
60465;BME280;46314;52.392;9.758;2023-02-20T03:16:43;101301.88;;;7.61;73.17
60465;BME280;46314;52.392;9.758;2023-02-20T03:19:12;101292.16;;;7.95;72.95
60465;BME280;46314;52.392;9.758;2023-02-20T03:21:43;101283.41;;;8.19;71.76
60465;BME280;46314;52.392;9.758;2023-02-20T03:24:13;101287.31;;;8.33;71.68
60465;BME280;46314;52.392;9.758;2023-02-20T03:26:41;101287.91;;;8.36;70.54
60465;BME280;46314;52.392;9.758;2023-02-20T03:29:13;101291.94;;;8.07;72.03
60465;BME280;46314;52.392;9.758;2023-02-20T03:31:46;101289.41;;;7.53;73.74
60465;BME280;46314;52.392;9.758;2023-02-20T03:34:17;101272.53;;;7.44;74.11
60465;BME280;46314;52.392;9.758;2023-02-20T03:36:52;101270.34;;;7.99;72.31
60465;BME280;46314;52.392;9.758;2023-02-20T03:39:24;101242.53;;;7.63;73.10
60465;BME280;46314;52.392;9.758;2023-02-20T03:41:52;101245.47;;;7.99;71.66
60465;BME280;46314;52.392;9.758;2023-02-20T03:44:21;101257.88;;;7.96;72.39
60465;BME280;46314;52.392;9.758;2023-02-20T03:46:50;101254.91;;;8.08;72.15
60465;BME280;46314;52.392;9.758;2023-02-20T03:49:20;101263.50;;;7.59;73.35
60465;BME280;46314;52.392;9.758;2023-02-20T03:51:49;101249.84;;;7.85;73.54
60465;BME280;46314;52.392;9.758;2023-02-20T03:54:15;101245.00;;;8.18;72.21
60465;BME280;46314;52.392;9.758;2023-02-20T03:56:44;101250.75;;;8.01;72.62
60465;BME280;46314;52.392;9.758;2023-02-20T03:59:14;101239.69;;;7.48;73.87
60465;BME280;46314;52.392;9.758;2023-02-20T04:01:43;101238.00;;;7.94;73.34
60465;BME280;46314;52.392;9.758;2023-02-20T04:04:15;101247.72;;;8.02;72.69
60465;BME280;46314;52.392;9.758;2023-02-20T04:06:49;101246.69;;;8.29;71.04
60465;BME280;46314;52.392;9.758;2023-02-20T04:09:20;101240.31;;;8.28;71.20
60465;BME280;46314;52.392;9.758;2023-02-20T04:11:49;101235.00;;;8.06;71.89
60465;BME280;46314;52.392;9.758;2023-02-20T04:14:20;101216.84;;;8.26;71.97
60465;BME280;46314;52.392;9.758;2023-02-20T04:16:51;101207.91;;;8.03;73.24
60465;BME280;46314;52.392;9.758;2023-02-20T04:19:20;101226.28;;;7.72;73.88
60465;BME280;46314;52.392;9.758;2023-02-20T04:21:50;101221.28;;;8.32;72.22
60465;BME280;46314;52.392;9.758;2023-02-20T04:24:22;101207.91;;;8.03;72.73
60465;BME280;46314;52.392;9.758;2023-02-20T04:26:51;101210.09;;;7.96;72.59
60465;BME280;46314;52.392;9.758;2023-02-20T04:29:17;101196.97;;;8.29;71.67
60465;BME280;46314;52.392;9.758;2023-02-20T04:31:44;101176.50;;;8.35;72.10
60465;BME280;46314;52.392;9.758;2023-02-20T04:34:10;101159.16;;;8.45;71.64
60465;BME280;46314;52.392;9.758;2023-02-20T04:36:36;101145.38;;;7.71;73.31
60465;BME280;46314;52.392;9.758;2023-02-20T04:39:04;101129.50;;;8.25;72.19
60465;BME280;46314;52.392;9.758;2023-02-20T04:41:30;101140.50;;;7.99;73.25
60465;BME280;46314;52.392;9.758;2023-02-20T04:43:57;101138.41;;;8.42;71.35
60465;BME280;46314;52.392;9.758;2023-02-20T04:46:23;101136.44;;;8.38;71.15
60465;BME280;46314;52.392;9.758;2023-02-20T04:48:50;101152.16;;;8.11;71.74
60465;BME280;46314;52.392;9.758;2023-02-20T04:51:16;101157.44;;;8.39;70.88
60465;BME280;46314;52.392;9.758;2023-02-20T04:53:42;101168.84;;;8.68;70.40
60465;BME280;46314;52.392;9.758;2023-02-20T04:56:10;101136.72;;;8.36;71.77
60465;BME280;46314;52.392;9.758;2023-02-20T04:58:37;101145.47;;;7.92;73.10
60465;BME280;46314;52.392;9.758;2023-02-20T05:01:03;101156.22;;;7.88;73.07
60465;BME280;46314;52.392;9.758;2023-02-20T05:03:30;101161.34;;;8.58;71.34
60465;BME280;46314;52.392;9.758;2023-02-20T05:05:56;101157.13;;;8.14;72.30
60465;BME280;46314;52.392;9.758;2023-02-20T05:08:23;101143.88;;;8.22;72.04
60465;BME280;46314;52.392;9.758;2023-02-20T05:10:49;101159.97;;;8.45;71.67
60465;BME280;46314;52.392;9.758;2023-02-20T05:13:17;101162.19;;;8.48;70.85
60465;BME280;46314;52.392;9.758;2023-02-20T05:15:43;101157.97;;;8.41;72.42
60465;BME280;46314;52.392;9.758;2023-02-20T05:18:09;101163.03;;;8.69;71.23
60465;BME280;46314;52.392;9.758;2023-02-20T05:20:36;101159.16;;;8.45;71.76
60465;BME280;46314;52.392;9.758;2023-02-20T05:23:02;101155.81;;;8.89;70.88
60465;BME280;46314;52.392;9.758;2023-02-20T05:25:29;101156.09;;;8.77;70.82
60465;BME280;46314;52.392;9.758;2023-02-20T05:27:55;101162.66;;;8.14;73.05
60465;BME280;46314;52.392;9.758;2023-02-20T05:30:23;101154.44;;;8.56;72.08
60465;BME280;46314;52.392;9.758;2023-02-20T05:32:50;101153.06;;;8.74;71.55
60465;BME280;46314;52.392;9.758;2023-02-20T05:35:16;101140.06;;;8.74;70.90
60465;BME280;46314;52.392;9.758;2023-02-20T05:37:42;101136.47;;;8.43;72.51
60465;BME280;46314;52.392;9.758;2023-02-20T05:40:09;101131.25;;;8.57;72.15
60465;BME280;46314;52.392;9.758;2023-02-20T05:42:36;101107.97;;;8.27;72.57
60465;BME280;46314;52.392;9.758;2023-02-20T05:45:03;101114.34;;;8.89;70.63
60465;BME280;46314;52.392;9.758;2023-02-20T05:47:31;101115.19;;;8.43;72.26
60465;BME280;46314;52.392;9.758;2023-02-20T05:49:58;101103.28;;;8.38;72.38
60465;BME280;46314;52.392;9.758;2023-02-20T05:52:24;101101.59;;;8.11;73.29
60465;BME280;46314;52.392;9.758;2023-02-20T05:54:50;101100.78;;;8.72;71.90
60465;BME280;46314;52.392;9.758;2023-02-20T05:57:17;101095.81;;;8.74;71.15
60465;BME280;46314;52.392;9.758;2023-02-20T05:59:43;101094.66;;;8.08;73.96
60465;BME280;46314;52.392;9.758;2023-02-20T06:02:10;101091.38;;;8.11;73.01
60465;BME280;46314;52.392;9.758;2023-02-20T06:04:37;101093.06;;;8.59;71.33
60465;BME280;46314;52.392;9.758;2023-02-20T06:07:06;101090.59;;;8.67;71.20
60465;BME280;46314;52.392;9.758;2023-02-20T06:09:33;101089.19;;;8.70;71.08
60465;BME280;46314;52.392;9.758;2023-02-20T06:11:59;101075.09;;;8.51;71.46
60465;BME280;46314;52.392;9.758;2023-02-20T06:14:26;101067.59;;;8.67;72.07
60465;BME280;46314;52.392;9.758;2023-02-20T06:16:52;101067.06;;;8.39;72.58
60465;BME280;46314;52.392;9.758;2023-02-20T06:19:21;101065.44;;;8.53;72.20
60465;BME280;46314;52.392;9.758;2023-02-20T06:21:50;101072.59;;;8.70;71.06
60465;BME280;46314;52.392;9.758;2023-02-20T06:24:17;101081.44;;;8.72;71.49
60465;BME280;46314;52.392;9.758;2023-02-20T06:26:44;101078.13;;;8.34;71.83
60465;BME280;46314;52.392;9.758;2023-02-20T06:29:13;101077.47;;;9.09;69.93
60465;BME280;46314;52.392;9.758;2023-02-20T06:31:39;101081.75;;;8.60;71.33
60465;BME280;46314;52.392;9.758;2023-02-20T06:34:07;101070.94;;;8.69;70.57
60465;BME280;46314;52.392;9.758;2023-02-20T06:36:35;101070.03;;;9.04;70.12
60465;BME280;46314;52.392;9.758;2023-02-20T06:39:03;101071.22;;;8.67;70.96
60465;BME280;46314;52.392;9.758;2023-02-20T06:41:30;101075.63;;;8.84;70.91
60465;BME280;46314;52.392;9.758;2023-02-20T06:43:57;101069.50;;;8.97;70.42
60465;BME280;46314;52.392;9.758;2023-02-20T06:46:24;101070.38;;;8.67;71.09
60465;BME280;46314;52.392;9.758;2023-02-20T06:48:52;101071.50;;;8.76;71.60
60465;BME280;46314;52.392;9.758;2023-02-20T06:51:21;101088.03;;;8.86;70.40
60465;BME280;46314;52.392;9.758;2023-02-20T06:53:48;101092.50;;;8.62;71.80
60465;BME280;46314;52.392;9.758;2023-02-20T06:56:17;101096.09;;;8.73;70.98
60465;BME280;46314;52.392;9.758;2023-02-20T06:58:45;101099.63;;;9.04;69.42
60465;BME280;46314;52.392;9.758;2023-02-20T07:01:11;101096.09;;;8.78;69.96
60465;BME280;46314;52.392;9.758;2023-02-20T07:03:38;101094.06;;;9.14;69.46
60465;BME280;46314;52.392;9.758;2023-02-20T07:06:05;101110.22;;;8.45;70.86
60465;BME280;46314;52.392;9.758;2023-02-20T07:08:31;101098.88;;;8.73;70.09
60465;BME280;46314;52.392;9.758;2023-02-20T07:10:57;101102.19;;;8.85;69.51
60465;BME280;46314;52.392;9.758;2023-02-20T07:13:25;101091.13;;;8.59;70.46
60465;BME280;46314;52.392;9.758;2023-02-20T07:15:51;101086.94;;;8.26;71.43
60465;BME280;46314;52.392;9.758;2023-02-20T07:18:18;101089.50;;;8.48;71.29
60465;BME280;46314;52.392;9.758;2023-02-20T07:20:44;101090.00;;;8.29;70.99
60465;BME280;46314;52.392;9.758;2023-02-20T07:23:11;101081.66;;;9.06;68.78
60465;BME280;46314;52.392;9.758;2023-02-20T07:25:37;101075.88;;;8.87;69.34
60465;BME280;46314;52.392;9.758;2023-02-20T07:28:03;101076.44;;;8.28;71.49
60465;BME280;46314;52.392;9.758;2023-02-20T07:30:31;101073.19;;;8.57;69.95
60465;BME280;46314;52.392;9.758;2023-02-20T07:32:58;101072.88;;;8.63;69.82
60465;BME280;46314;52.392;9.758;2023-02-20T07:35:24;101064.03;;;8.46;70.39
60465;BME280;46314;52.392;9.758;2023-02-20T07:37:50;101074.53;;;8.64;70.24
60465;BME280;46314;52.392;9.758;2023-02-20T07:40:17;101067.03;;;8.85;69.22
60465;BME280;46314;52.392;9.758;2023-02-20T07:42:44;101082.00;;;8.64;69.65
60465;BME280;46314;52.392;9.758;2023-02-20T07:45:10;101079.75;;;8.09;71.93
60465;BME280;46314;52.392;9.758;2023-02-20T07:47:38;101088.31;;;8.95;68.67
60465;BME280;46314;52.392;9.758;2023-02-20T07:50:05;101088.00;;;9.07;67.99
60465;BME280;46314;52.392;9.758;2023-02-20T07:52:32;101095.53;;;8.76;70.05
60465;BME280;46314;52.392;9.758;2023-02-20T07:54:58;101089.44;;;8.89;69.28
60465;BME280;46314;52.392;9.758;2023-02-20T07:57:24;101096.31;;;9.07;69.13
60465;BME280;46314;52.392;9.758;2023-02-20T07:59:51;101098.00;;;8.98;68.49
60465;BME280;46314;52.392;9.758;2023-02-20T08:02:17;101095.84;;;8.53;70.12
60465;BME280;46314;52.392;9.758;2023-02-20T08:04:45;101089.16;;;8.90;68.97
60465;BME280;46314;52.392;9.758;2023-02-20T08:07:11;101084.97;;;9.08;68.59
60465;BME280;46314;52.392;9.758;2023-02-20T08:09:38;101083.63;;;8.90;68.95
60465;BME280;46314;52.392;9.758;2023-02-20T08:12:04;101074.97;;;9.18;68.44
60465;BME280;46314;52.392;9.758;2023-02-20T08:14:31;101075.28;;;9.06;67.85
60465;BME280;46314;52.392;9.758;2023-02-20T08:16:57;101073.13;;;8.67;69.79
60465;BME280;46314;52.392;9.758;2023-02-20T08:19:23;101064.25;;;8.90;69.92
60465;BME280;46314;52.392;9.758;2023-02-20T08:21:52;101071.75;;;8.75;68.97
60465;BME280;46314;52.392;9.758;2023-02-20T08:24:18;101060.59;;;9.10;68.54
60465;BME280;46314;52.392;9.758;2023-02-20T08:26:46;101063.50;;;9.50;66.82
60465;BME280;46314;52.392;9.758;2023-02-20T08:29:13;101055.06;;;9.05;68.66
60465;BME280;46314;52.392;9.758;2023-02-20T08:31:40;101053.81;;;8.46;70.57
60465;BME280;46314;52.392;9.758;2023-02-20T08:34:07;101054.81;;;8.97;68.84
60465;BME280;46314;52.392;9.758;2023-02-20T08:36:33;101055.16;;;8.90;68.36
60465;BME280;46314;52.392;9.758;2023-02-20T08:39:01;101047.28;;;9.18;67.89
60465;BME280;46314;52.392;9.758;2023-02-20T08:41:27;101044.72;;;9.37;66.72
60465;BME280;46314;52.392;9.758;2023-02-20T08:43:54;101047.63;;;9.06;67.74
60465;BME280;46314;52.392;9.758;2023-02-20T08:46:21;101042.38;;;9.04;67.58
60465;BME280;46314;52.392;9.758;2023-02-20T08:48:48;101044.34;;;8.88;68.69
60465;BME280;46314;52.392;9.758;2023-02-20T08:51:17;101042.88;;;9.17;67.40
60465;BME280;46314;52.392;9.758;2023-02-20T08:53:43;101053.72;;;8.98;68.77
60465;BME280;46314;52.392;9.758;2023-02-20T08:56:11;101040.44;;;8.95;69.04
60465;BME280;46314;52.392;9.758;2023-02-20T08:58:38;101042.34;;;9.15;68.34
60465;BME280;46314;52.392;9.758;2023-02-20T09:01:04;101046.91;;;9.45;67.68
60465;BME280;46314;52.392;9.758;2023-02-20T09:03:31;101057.75;;;9.31;67.81
60465;BME280;46314;52.392;9.758;2023-02-20T09:05:57;101058.28;;;9.38;67.50
60465;BME280;46314;52.392;9.758;2023-02-20T09:08:24;101049.41;;;9.41;68.24
60465;BME280;46314;52.392;9.758;2023-02-20T09:10:50;101048.72;;;9.10;69.47
60465;BME280;46314;52.392;9.758;2023-02-20T09:13:18;101039.28;;;9.11;68.95
60465;BME280;46314;52.392;9.758;2023-02-20T09:15:45;101044.69;;;9.47;69.05
60465;BME280;46314;52.392;9.758;2023-02-20T09:18:12;101026.06;;;8.93;69.91
60465;BME280;46314;52.392;9.758;2023-02-20T09:20:39;101036.25;;;9.73;68.58
60465;BME280;46314;52.392;9.758;2023-02-20T09:23:06;101012.47;;;9.06;69.91
60465;BME280;46314;52.392;9.758;2023-02-20T09:25:33;101016.38;;;8.95;71.01
60465;BME280;46314;52.392;9.758;2023-02-20T09:28:00;101017.56;;;9.44;69.64
60465;BME280;46314;52.392;9.758;2023-02-20T09:30:27;101009.53;;;9.42;69.61
60465;BME280;46314;52.392;9.758;2023-02-20T09:32:54;101013.56;;;9.05;71.17
60465;BME280;46314;52.392;9.758;2023-02-20T09:35:23;101000.53;;;9.16;71.27
60465;BME280;46314;52.392;9.758;2023-02-20T09:37:51;100999.88;;;8.69;73.05
60465;BME280;46314;52.392;9.758;2023-02-20T09:40:20;101011.75;;;9.40;70.79
60465;BME280;46314;52.392;9.758;2023-02-20T09:42:58;100987.75;;;9.31;71.39
60465;BME280;46314;52.392;9.758;2023-02-20T09:45:31;100987.22;;;9.23;71.70
60465;BME280;46314;52.392;9.758;2023-02-20T09:48:13;100976.66;;;9.36;71.83
60465;BME280;46314;52.392;9.758;2023-02-20T09:50:44;100974.53;;;9.12;73.11
60465;BME280;46314;52.392;9.758;2023-02-20T09:53:19;100977.34;;;8.97;73.89
60465;BME280;46314;52.392;9.758;2023-02-20T09:55:48;100985.38;;;9.53;72.30
60465;BME280;46314;52.392;9.758;2023-02-20T09:58:20;100972.44;;;9.43;71.90
60465;BME280;46314;52.392;9.758;2023-02-20T10:00:49;100992.06;;;9.47;72.01
60465;BME280;46314;52.392;9.758;2023-02-20T10:03:21;100970.22;;;8.85;73.60
60465;BME280;46314;52.392;9.758;2023-02-20T10:05:50;100977.13;;;9.48;72.00
60465;BME280;46314;52.392;9.758;2023-02-20T10:08:18;100961.09;;;9.79;71.60
60465;BME280;46314;52.392;9.758;2023-02-20T10:10:47;100968.53;;;8.89;73.84
60465;BME280;46314;52.392;9.758;2023-02-20T10:13:28;100959.00;;;9.16;72.88
60465;BME280;46314;52.392;9.758;2023-02-20T10:16:06;100969.50;;;9.19;73.79
60465;BME280;46314;52.392;9.758;2023-02-20T10:18:37;100956.38;;;9.40;73.29
60465;BME280;46314;52.392;9.758;2023-02-20T10:21:15;100955.50;;;9.00;74.95
60465;BME280;46314;52.392;9.758;2023-02-20T10:23:47;100963.22;;;9.03;75.21
60465;BME280;46314;52.392;9.758;2023-02-20T10:26:32;100955.47;;;9.55;73.11
60465;BME280;46314;52.392;9.758;2023-02-20T10:29:13;100970.06;;;9.16;75.08
60465;BME280;46314;52.392;9.758;2023-02-20T10:31:44;100981.16;;;9.16;73.83
60465;BME280;46314;52.392;9.758;2023-02-20T10:34:19;100976.53;;;9.51;74.13
60465;BME280;46314;52.392;9.758;2023-02-20T10:36:51;100983.50;;;9.43;74.54
60465;BME280;46314;52.392;9.758;2023-02-20T10:39:20;100975.63;;;9.16;75.72
60465;BME280;46314;52.392;9.758;2023-02-20T10:41:51;100964.44;;;9.37;74.61
60465;BME280;46314;52.392;9.758;2023-02-20T10:44:25;100963.41;;;9.27;75.15
60465;BME280;46314;52.392;9.758;2023-02-20T10:46:59;100968.72;;;9.14;75.56
60465;BME280;46314;52.392;9.758;2023-02-20T10:49:34;100974.38;;;9.43;74.91
60465;BME280;46314;52.392;9.758;2023-02-20T10:52:06;100990.66;;;9.50;74.42
60465;BME280;46314;52.392;9.758;2023-02-20T10:54:36;100983.78;;;8.87;76.86
60465;BME280;46314;52.392;9.758;2023-02-20T10:57:07;100979.34;;;9.41;75.32
60465;BME280;46314;52.392;9.758;2023-02-20T10:59:40;100994.91;;;9.32;75.56
60465;BME280;46314;52.392;9.758;2023-02-20T11:02:15;100988.47;;;9.46;74.68
60465;BME280;46314;52.392;9.758;2023-02-20T11:04:47;100994.97;;;9.16;75.51
60465;BME280;46314;52.392;9.758;2023-02-20T11:07:17;100992.13;;;9.37;76.20
60465;BME280;46314;52.392;9.758;2023-02-20T11:09:44;100989.50;;;9.95;73.25
60465;BME280;46314;52.392;9.758;2023-02-20T11:12:22;100986.66;;;9.21;75.72
60465;BME280;46314;52.392;9.758;2023-02-20T11:14:51;100979.34;;;9.41;75.71
60465;BME280;46314;52.392;9.758;2023-02-20T11:17:20;100984.25;;;9.09;76.52
60465;BME280;46314;52.392;9.758;2023-02-20T11:19:50;100983.09;;;9.16;76.61
60465;BME280;46314;52.392;9.758;2023-02-20T11:22:36;100982.31;;;9.10;76.80
60465;BME280;46314;52.392;9.758;2023-02-20T11:25:14;100994.66;;;9.28;77.35
60465;BME280;46314;52.392;9.758;2023-02-20T11:27:41;100997.44;;;9.28;77.56
60465;BME280;46314;52.392;9.758;2023-02-20T11:30:21;100987.28;;;9.13;77.56
60465;BME280;46314;52.392;9.758;2023-02-20T11:32:59;100967.91;;;9.08;78.04
60465;BME280;46314;52.392;9.758;2023-02-20T11:35:27;100965.41;;;9.56;76.56
60465;BME280;46314;52.392;9.758;2023-02-20T11:38:18;100962.59;;;9.22;77.54
60465;BME280;46314;52.392;9.758;2023-02-20T11:41:00;100959.63;;;9.08;78.63
60465;BME280;46314;52.392;9.758;2023-02-20T11:43:30;100964.63;;;9.06;78.43
60465;BME280;46314;52.392;9.758;2023-02-20T11:46:06;100953.09;;;8.78;80.69
60465;BME280;46314;52.392;9.758;2023-02-20T11:48:35;100947.00;;;8.81;81.70
60465;BME280;46314;52.392;9.758;2023-02-20T11:51:02;100929.44;;;9.12;79.61
60465;BME280;46314;52.392;9.758;2023-02-20T11:53:29;100932.03;;;8.93;80.66
60465;BME280;46314;52.392;9.758;2023-02-20T11:56:08;100934.09;;;9.16;79.08
60465;BME280;46314;52.392;9.758;2023-02-20T11:58:36;100945.75;;;9.13;79.83
60465;BME280;46314;52.392;9.758;2023-02-20T12:01:02;100946.00;;;9.22;79.11
60465;BME280;46314;52.392;9.758;2023-02-20T12:03:30;100944.31;;;9.26;79.75
60465;BME280;46314;52.392;9.758;2023-02-20T12:06:00;100944.06;;;9.17;80.17
60465;BME280;46314;52.392;9.758;2023-02-20T12:08:34;100932.84;;;8.88;80.94
60465;BME280;46314;52.392;9.758;2023-02-20T12:11:05;100944.19;;;8.91;82.20
60465;BME280;46314;52.392;9.758;2023-02-20T12:13:37;100953.56;;;9.06;81.13
60465;BME280;46314;52.392;9.758;2023-02-20T12:16:12;100956.84;;;9.08;80.47
60465;BME280;46314;52.392;9.758;2023-02-20T12:18:53;100935.28;;;9.05;81.23
60465;BME280;46314;52.392;9.758;2023-02-20T12:21:34;100929.31;;;8.77;82.43
60465;BME280;46314;52.392;9.758;2023-02-20T12:24:24;100944.69;;;9.04;81.84
60465;BME280;46314;52.392;9.758;2023-02-20T12:26:56;100956.44;;;8.75;83.91
60465;BME280;46314;52.392;9.758;2023-02-20T12:29:31;100947.75;;;9.02;83.00
60465;BME280;46314;52.392;9.758;2023-02-20T12:32:08;100935.94;;;8.81;84.85
60465;BME280;46314;52.392;9.758;2023-02-20T12:34:52;100920.34;;;9.06;85.89
60465;BME280;46314;52.392;9.758;2023-02-20T12:37:32;100928.78;;;9.25;84.72
60465;BME280;46314;52.392;9.758;2023-02-20T12:40:30;100944.09;;;9.12;86.58
60465;BME280;46314;52.392;9.758;2023-02-20T12:43:05;100928.19;;;8.88;90.85
60465;BME280;46314;52.392;9.758;2023-02-20T12:45:38;100935.59;;;8.93;90.82
60465;BME280;46314;52.392;9.758;2023-02-20T12:48:16;100948.31;;;8.99;90.84
60465;BME280;46314;52.392;9.758;2023-02-20T12:50:52;100942.72;;;9.15;91.22
60465;BME280;46314;52.392;9.758;2023-02-20T12:53:38;100941.88;;;9.09;91.05
60465;BME280;46314;52.392;9.758;2023-02-20T12:56:25;100929.81;;;8.89;95.26
60465;BME280;46314;52.392;9.758;2023-02-20T12:58:59;100938.91;;;8.95;96.11
60465;BME280;46314;52.392;9.758;2023-02-20T13:01:29;100933.00;;;8.57;97.78
60465;BME280;46314;52.392;9.758;2023-02-20T13:04:16;100926.66;;;8.36;100.00
60465;BME280;46314;52.392;9.758;2023-02-20T13:06:51;100931.59;;;8.55;99.42
60465;BME280;46314;52.392;9.758;2023-02-20T13:09:23;100924.28;;;8.89;99.66
60465;BME280;46314;52.392;9.758;2023-02-20T13:11:54;100925.22;;;9.19;97.98
60465;BME280;46314;52.392;9.758;2023-02-20T13:14:31;100911.72;;;9.07;98.33
60465;BME280;46314;52.392;9.758;2023-02-20T13:17:10;100926.91;;;9.20;99.06